Time;durP1;ratioP1;P1;durP2;ratioP2;P2;SDS_P1;SDS_P2;PMS_P1;PMS_P2;Temp;Humidity;BMP_temperature;BMP_pressure;BME280_temperature;BME280_humidity;BME280_pressure;Samples;Min_cycle;Max_cycle;Signal;HPM_P1;HPM_P2
2023/08/22 00:01:13;;;;;;;7.43;3.85;;;;;;;-144.05;86.94;56908.31;5074066;28;20113;-82
2023/08/22 00:03:39;;;;;;;6.65;3.53;;;;;;;-144.05;86.88;56914.69;5075392;28;20112;-82
2023/08/22 00:06:05;;;;;;;7.05;4.40;;;14.90;99.90;;;-144.05;87.07;56935.91;5072618;28;20078;-81
2023/08/22 00:08:32;;;;;;;5.53;4.00;;;;;;;-144.05;86.99;56950.78;5075059;28;20028;-81
2023/08/22 00:10:59;;;;;;;6.03;3.35;;;;;;;-144.05;86.92;56914.69;5079690;28;20052;-82
2023/08/22 00:13:24;;;;;;;7.15;3.92;;;14.60;99.90;;;-144.05;86.73;56914.69;5077000;28;20086;-82
2023/08/22 00:15:50;;;;;;;5.32;3.85;;;16.70;99.90;;;-144.05;86.72;56908.31;5080542;28;20427;-81
2023/08/22 00:18:17;;;;;;;6.20;4.28;;;;;;;-144.05;86.69;56921.06;5082442;28;20025;-81
2023/08/22 00:20:43;;;;;;;7.32;4.15;;;;;;;-144.05;86.67;56916.81;5082463;28;20569;-82
2023/08/22 00:23:09;;;;;;;5.80;4.05;;;18.30;99.90;;;-144.05;86.59;56906.19;5082799;28;20032;-81
2023/08/22 00:25:34;;;;;;;8.93;3.55;;;18.00;99.90;;;-144.05;86.75;56891.31;5083640;28;20040;-81
2023/08/22 00:28:01;;;;;;;5.53;3.20;;;;;;;-144.05;86.69;56895.56;5092223;28;20032;-80
2023/08/22 00:30:27;;;;;;;4.90;3.17;;;;;;;-144.05;86.85;56912.56;5101892;28;20028;-82
2023/08/22 00:32:54;;;;;;;5.57;3.20;;;18.30;99.90;;;-144.05;86.94;56908.31;5118405;28;20036;-81
2023/08/22 00:35:24;;;;;;;6.60;3.20;;;17.40;99.90;;;-144.05;87.09;56908.31;5102191;28;20043;-83
2023/08/22 00:37:50;;;;;;;7.05;3.72;;;;;;;-144.05;87.27;56925.28;5103597;28;20024;-82
2023/08/22 00:40:16;;;;;;;6.18;3.25;;;;;;;-144.05;87.17;56906.19;5102922;28;20126;-83
2023/08/22 00:42:43;;;;;;;6.78;4.07;;;;;;;-144.05;87.26;56918.94;5104437;28;20035;-82
2023/08/22 00:45:09;;;;;;;9.40;3.80;;;17.00;99.90;;;-144.05;87.23;56910.44;5102225;28;20099;-81
2023/08/22 00:47:36;;;;;;;15.18;4.28;;;16.90;99.90;;;-144.05;87.51;56895.56;5097247;28;20039;-82
2023/08/22 00:50:04;;;;;;;8.88;4.07;;;17.20;99.90;;;-144.05;87.56;56931.66;5099220;28;20376;-86
2023/08/22 00:52:31;;;;;;;8.13;4.05;;;18.10;99.90;;;-144.05;87.78;56929.53;5099042;28;20024;-84
2023/08/22 00:54:57;;;;;;;7.97;3.65;;;17.60;99.90;;;-144.05;87.67;56901.94;5113751;28;20020;-82
2023/08/22 00:57:23;;;;;;;4.70;3.67;;;;;;;-144.05;87.64;56918.94;5093276;28;20123;-82
2023/08/22 00:59:51;;;;;;;7.13;4.32;;;16.90;99.90;;;-144.05;87.55;56897.69;5094523;28;20089;-82
2023/08/22 01:02:17;;;;;;;4.70;3.67;;;;;;;-144.05;87.77;56916.81;5094410;28;20052;-81
2023/08/22 01:04:43;;;;;;;7.53;4.45;;;14.30;99.90;;;-144.05;88.06;56901.94;5094704;28;20020;-82
2023/08/22 01:07:37;;;;;;;7.43;3.95;;;16.50;99.90;;;-144.05;88.46;56906.19;5109975;28;20341;-83
2023/08/22 01:10:32;;;;;;;8.35;4.72;;;18.20;99.90;;;-144.05;88.43;56933.78;5094023;28;20128;-81
2023/08/22 01:13:14;;;;;;;8.57;4.15;;;17.90;99.90;;;-144.05;87.95;56887.06;5094273;28;20020;-82
2023/08/22 01:15:42;;;;;;;6.20;4.25;;;16.60;99.90;;;-144.05;87.91;56923.19;5094264;28;20032;-81
2023/08/22 01:18:11;;;;;;;6.38;4.22;;;18.20;99.90;;;-144.05;88.05;56906.19;5093845;28;20027;-81
2023/08/22 01:20:37;;;;;;;5.88;3.53;;;18.00;99.90;;;-144.05;87.90;56910.44;5092218;28;20032;-83
2023/08/22 01:23:03;;;;;;;6.88;3.63;;;17.00;99.90;;;-144.05;87.92;56923.19;5094030;28;20016;-81
2023/08/22 01:25:30;;;;;;;6.65;3.53;;;17.50;99.90;;;-144.05;87.74;56899.81;5093942;28;20024;-81
2023/08/22 01:28:36;;;;;;;7.63;4.15;;;17.40;99.90;;;-144.05;88.05;56906.19;5083939;28;20039;-81
2023/08/22 01:31:17;;;;;;;7.55;4.15;;;17.40;99.90;;;-144.05;87.83;56897.69;5072176;28;20364;-83
2023/08/22 01:33:57;;;;;;;5.03;3.75;;;16.50;99.90;;;-144.05;87.95;56906.19;5073704;28;20103;-82
2023/08/22 01:36:25;;;;;;;6.22;4.28;;;17.30;99.90;;;-144.05;87.95;56908.31;5073672;28;20032;-84
2023/08/22 01:38:53;;;;;;;5.82;3.90;;;17.40;99.90;;;-144.05;88.06;56925.28;5073386;28;20033;-81
2023/08/22 01:41:23;;;;;;;5.93;4.18;;;17.60;99.90;;;-144.05;88.10;56927.41;5073119;28;20035;-82
2023/08/22 01:43:52;;;;;;;11.45;5.35;;;16.40;99.90;;;-144.05;88.46;56927.41;5072047;28;20044;-81
2023/08/22 01:46:18;;;;;;;9.68;5.15;;;14.60;99.90;;;-144.05;88.49;56925.28;5073081;28;20028;-81
2023/08/22 01:48:43;;;;;;;8.10;4.38;;;14.20;99.90;;;-144.05;88.17;56927.41;5071911;28;20048;-82
2023/08/22 01:51:10;;;;;;;9.27;4.38;;;17.50;99.90;;;-144.05;88.15;56914.69;5073124;28;20113;-83
2023/08/22 01:53:35;;;;;;;10.27;4.70;;;14.20;99.90;;;-144.05;88.08;56931.66;5073184;28;20033;-82
2023/08/22 01:56:02;;;;;;;5.88;4.07;;;17.60;99.90;;;-144.05;88.26;56925.28;5071895;28;20095;-82
2023/08/22 01:58:28;;;;;;;8.07;4.10;;;17.70;99.90;;;-144.05;88.07;56942.28;5071820;28;20336;-82
2023/08/22 02:00:54;;;;;;;5.38;3.42;;;14.60;99.90;;;-144.05;88.15;56918.94;5071591;28;20208;-82
2023/08/22 02:03:21;;;;;;;6.72;4.40;;;17.50;99.90;;;-144.05;88.25;56944.41;5073033;28;20108;-82
2023/08/22 02:05:47;;;;;;;8.60;4.13;;;17.70;99.90;;;-144.05;88.40;56923.19;5072908;28;20373;-82
2023/08/22 02:08:13;;;;;;;7.15;3.97;;;17.80;99.90;;;-144.05;88.28;56923.19;5071626;28;20086;-82
2023/08/22 02:10:39;;;;;;;7.60;4.65;;;17.60;99.90;;;-144.05;88.28;56912.56;5071556;28;20038;-82
2023/08/22 02:13:05;;;;;;;8.13;3.97;;;18.10;99.90;;;-144.05;88.27;56921.06;5071783;28;20039;-84
2023/08/22 02:15:31;;;;;;;6.45;4.18;;;;;;;-144.05;88.36;56891.31;5078748;28;20170;-81
2023/08/22 02:17:57;;;;;;;8.77;3.97;;;17.60;99.90;;;-144.05;88.22;56904.06;5097580;28;20039;-82
2023/08/22 02:20:25;;;;;;;7.65;4.30;;;;;;;-144.05;88.33;56931.66;5097463;28;20025;-81
2023/08/22 02:22:50;;;;;;;13.85;4.65;;;14.30;99.90;;;-144.05;88.40;56929.53;5087440;28;20036;-82
2023/08/22 02:25:17;;;;;;;6.68;3.75;;;17.50;99.90;;;-144.05;88.48;56908.31;5072572;28;20480;-82
2023/08/22 02:27:43;;;;;;;5.93;3.63;;;;;;;-144.05;88.34;56908.31;5078774;28;20032;-82
2023/08/22 02:30:11;;;;;;;6.05;3.75;;;17.80;99.90;;;-144.05;88.20;56923.19;5090893;28;20070;-81
2023/08/22 02:32:36;;;;;;;9.82;3.72;;;17.60;99.90;;;-144.05;88.35;56906.19;5092291;28;20032;-82
2023/08/22 02:35:03;;;;;;;9.05;4.35;;;18.00;99.90;;;-144.05;88.39;56929.53;5091428;28;20031;-82
2023/08/22 02:37:29;;;;;;;5.22;3.78;;;17.10;99.90;;;-144.05;88.27;56923.19;5091378;28;20043;-85
2023/08/22 02:39:55;;;;;;;6.28;3.88;;;17.50;99.90;;;-144.05;88.15;56925.28;5093196;28;20463;-85
2023/08/22 02:42:22;;;;;;;4.80;3.72;;;17.60;99.90;;;-144.05;88.35;56908.31;5091518;28;20076;-83
2023/08/22 02:44:48;;;;;;;6.15;3.83;;;;;;;-144.05;88.45;56929.53;5092362;28;20028;-82
2023/08/22 02:47:15;;;;;;;8.57;4.40;;;;;;;-144.05;88.35;56925.28;5090939;28;20115;-82
2023/08/22 02:49:41;;;;;;;7.10;3.88;;;17.50;99.90;;;-144.05;88.45;56929.53;5092146;28;20027;-81
2023/08/22 02:52:06;;;;;;;8.05;4.18;;;16.40;99.90;;;-144.05;88.34;56899.81;5090943;28;20073;-82
2023/08/22 02:54:32;;;;;;;6.07;4.00;;;18.10;99.90;;;-144.05;88.68;56942.28;5090997;28;20436;-82
2023/08/22 02:56:58;;;;;;;7.03;3.50;;;17.80;99.90;;;-144.05;88.43;56891.31;5092217;28;20020;-81
2023/08/22 02:59:24;;;;;;;6.97;4.10;;;17.10;99.90;;;-144.05;88.44;56918.94;5091950;28;20093;-82
2023/08/22 03:01:50;;;;;;;6.43;3.80;;;16.40;99.90;;;-144.05;88.45;56912.56;5092132;28;20052;-81
2023/08/22 03:04:16;;;;;;;4.75;3.13;;;;;;;-144.05;88.47;56918.94;5107753;28;20033;-81
2023/08/22 03:06:41;;;;;;;5.25;4.05;;;17.00;99.90;;;-144.05;88.38;56916.81;5090592;28;20526;-82
2023/08/22 03:09:07;;;;;;;9.63;4.18;;;17.60;99.90;;;-144.05;88.40;56912.56;5090605;28;20031;-82
2023/08/22 03:11:34;;;;;;;7.47;4.68;;;;;;;-144.05;88.40;56904.06;5090630;28;20036;-82
2023/08/22 03:14:00;;;;;;;10.63;4.85;;;;;;;-144.05;88.53;56925.28;5090651;28;20114;-81
2023/08/22 03:16:26;;;;;;;9.15;4.40;;;;;;;-144.05;88.43;56912.56;5090804;28;20081;-82
2023/08/22 03:18:52;;;;;;;8.35;4.70;;;14.00;99.90;;;-144.05;88.56;56927.41;5090561;28;20127;-82
2023/08/22 03:21:18;;;;;;;9.10;5.03;;;17.80;99.90;;;-144.05;88.55;56927.41;5107419;28;20544;-82
2023/08/22 03:23:44;;;;;;;5.72;3.90;;;17.00;99.90;;;-144.05;88.54;56918.94;5091985;28;20024;-82
2023/08/22 03:26:13;;;;;;;8.93;4.10;;;17.60;99.90;;;-144.05;88.55;56914.69;5090391;28;20506;-80
2023/08/22 03:28:39;;;;;;;13.07;5.07;;;;;;;-144.05;88.71;56933.78;5076031;28;20025;-82
2023/08/22 03:31:06;;;;;;;8.70;4.15;;;;;;;-144.05;88.70;56897.69;5071512;28;20021;-81
2023/08/22 03:33:33;;;;;;;5.97;4.07;;;14.00;99.90;;;-144.05;88.70;56912.56;5071664;28;20029;-82
2023/08/22 03:36:00;;;;;;;7.57;4.03;;;17.20;99.90;;;-144.05;88.85;56921.06;5071758;28;20032;-82
2023/08/22 03:38:26;;;;;;;7.68;4.30;;;;;;;-144.05;88.78;56921.06;5070335;28;20413;-82
2023/08/22 03:40:55;;;;;;;6.65;4.38;;;17.80;99.90;;;-144.05;88.95;56912.56;5071618;28;20025;-82
2023/08/22 03:43:22;;;;;;;6.80;4.80;;;;;;;-144.05;88.82;56897.69;5069981;28;20141;-82
2023/08/22 03:45:48;;;;;;;8.40;4.82;;;;;;;-144.05;88.69;56929.53;5071647;28;20209;-82
2023/08/22 03:48:15;;;;;;;11.20;5.22;;;;;;;-144.05;88.79;56933.78;5070936;28;20510;-82
2023/08/22 03:50:43;;;;;;;10.13;5.18;;;14.00;99.90;;;-144.05;88.86;56904.06;5071450;28;20047;-82
2023/08/22 03:53:10;;;;;;;9.32;5.10;;;14.70;99.90;;;-144.05;88.79;56910.44;5070344;28;20123;-82
2023/08/22 03:55:37;;;;;;;14.85;5.82;;;;;;;-144.05;89.12;56933.78;5070140;28;20120;-83
2023/08/22 03:58:03;;;;;;;11.77;5.43;;;17.10;99.90;;;-144.05;88.96;56908.31;5087036;28;20167;-83
2023/08/22 04:00:30;;;;;;;8.57;4.95;;;17.50;99.90;;;-144.05;88.79;56914.69;5106594;22;20063;-82
2023/08/22 04:02:58;;;;;;;10.20;5.00;;;17.40;99.90;;;-144.05;88.78;56908.31;5077295;28;20079;-88
2023/08/22 04:05:25;;;;;;;8.50;5.22;;;17.00;99.90;;;-144.05;88.81;56921.06;5053793;28;20547;-86
2023/08/22 04:07:52;;;;;;;7.82;5.28;;;16.10;99.90;;;-144.05;88.98;56921.06;5053999;28;20028;-86
2023/08/22 04:10:19;;;;;;;11.65;4.93;;;;;;;-144.05;88.75;56918.94;5053022;28;20073;-87
2023/08/22 04:12:46;;;;;;;7.15;4.93;;;;;;;-144.05;88.88;56906.19;5052889;28;20037;-88
2023/08/22 04:15:14;;;;;;;6.65;4.53;;;17.40;99.90;;;-144.05;88.75;56961.41;5035142;28;20056;-87
2023/08/22 04:17:44;;;;;;;6.95;4.63;;;;;;;-144.05;88.75;56925.28;5035070;28;20043;-85
2023/08/22 04:20:12;;;;;;;9.32;4.45;;;16.80;99.90;;;-144.05;88.98;56929.53;5054508;28;20075;-86
2023/08/22 04:22:41;;;;;;;7.53;5.28;;;16.20;99.90;;;-144.05;88.73;56918.94;5037452;28;20040;-89
2023/08/22 04:25:10;;;;;;;8.50;4.72;;;17.00;99.90;;;-144.05;88.79;56929.53;5037291;28;20044;-88
2023/08/22 04:27:36;;;;;;;9.10;5.28;;;17.00;99.90;;;-144.05;88.78;56904.06;5055320;28;20033;-85
2023/08/22 04:30:03;;;;;;;9.60;4.93;;;16.20;99.90;;;-144.05;88.65;56938.03;5054890;28;20040;-89
2023/08/22 04:32:29;;;;;;;9.50;5.85;;;;;;;-144.05;88.86;56925.28;5054416;28;20029;-90
2023/08/22 04:34:55;;;;;;;7.80;5.30;;;;;;;-144.05;88.69;56914.69;5055886;28;20075;-89
2023/08/22 04:37:22;;;;;;;7.75;5.38;;;16.20;99.90;;;-144.05;88.53;56918.94;5056655;28;20025;-87
2023/08/22 04:39:48;;;;;;;9.25;5.15;;;16.10;99.90;;;-144.05;88.50;56935.91;5055161;28;20101;-87
2023/08/22 04:42:13;;;;;;;11.25;5.80;;;17.20;99.90;;;-144.05;88.73;56918.94;5037413;28;20025;-85
2023/08/22 04:44:39;;;;;;;7.47;4.80;;;16.20;99.90;;;-144.05;88.66;56921.06;5054743;28;20545;-88
2023/08/22 04:47:06;;;;;;;7.72;4.65;;;16.20;99.90;;;-144.05;88.60;56904.06;5054346;28;20092;-88
2023/08/22 04:49:34;;;;;;;11.70;5.60;;;;;;;-144.05;88.47;56910.44;5055268;28;20052;-89
2023/08/22 04:52:00;;;;;;;12.65;4.60;;;17.50;99.90;;;-144.05;88.36;56908.31;5054780;28;20028;-81
2023/08/22 04:54:26;;;;;;;6.78;4.50;;;17.30;99.90;;;-144.05;88.09;56908.31;5056874;28;20032;-84
2023/08/22 04:56:52;;;;;;;7.82;4.90;;;16.40;99.90;;;-144.05;88.10;56925.28;5059977;28;20028;-87
2023/08/22 04:59:18;;;;;;;11.65;5.32;;;;;;;-144.05;88.16;56931.66;5059754;28;20052;-88
2023/08/22 05:01:44;;;;;;;7.97;5.10;;;16.90;99.90;;;-144.05;87.92;56931.66;5042043;28;20036;-87
2023/08/22 05:04:10;;;;;;;10.55;4.90;;;17.60;99.90;;;-144.05;87.81;56921.06;5059350;28;20507;-88
2023/08/22 05:06:36;;;;;;;9.35;4.45;;;17.60;99.90;;;-144.05;87.74;56942.28;5041224;28;20033;-87
2023/08/22 05:09:02;;;;;;;8.07;4.93;;;17.70;99.90;;;-144.05;87.78;56921.06;5058951;28;20042;-85
2023/08/22 05:11:29;;;;;;;9.30;4.78;;;;;;;-144.05;87.86;56925.28;5060198;28;20040;-84
2023/08/22 05:13:55;;;;;;;9.40;4.95;;;;;;;-144.05;87.87;56925.28;5042141;28;20115;-85
2023/08/22 05:16:21;;;;;;;10.82;5.32;;;17.60;99.90;;;-144.05;87.77;56921.06;5042334;28;20021;-86
2023/08/22 05:18:47;;;;;;;10.68;5.95;;;16.60;99.90;;;-144.05;87.63;56957.16;5059178;28;20424;-85
2023/08/22 05:21:13;;;;;;;8.32;4.60;;;17.90;99.90;;;-144.05;87.63;56933.78;5042459;28;20037;-83
2023/08/22 05:23:39;;;;;;;9.40;5.20;;;;;;;-144.05;87.47;56901.94;5043818;28;20500;-88
2023/08/22 05:26:05;;;;;;;8.52;4.82;;;;;;;-144.05;87.49;56878.56;5042572;28;20080;-86
2023/08/22 05:28:31;;;;;;;10.40;5.72;;;17.80;99.90;;;-144.05;87.48;56912.56;5043735;28;20039;-85
2023/08/22 05:30:57;;;;;;;8.90;5.28;;;;;;;-144.05;87.33;56923.19;5040187;28;20028;-85
2023/08/22 05:33:23;;;;;;;10.13;5.80;;;16.70;99.90;;;-144.05;87.23;56929.53;5057808;28;20029;-84
2023/08/22 05:35:49;;;;;;;6.50;4.82;;;17.40;99.90;;;-144.05;87.27;56925.28;5058187;28;20039;-86
2023/08/22 05:38:14;;;;;;;10.40;5.88;;;14.70;99.90;;;-144.05;87.10;56918.94;5057646;28;20032;-87
2023/08/22 05:40:41;;;;;;;10.40;5.15;;;;;;;-144.05;86.94;56908.31;5040765;28;20040;-85
2023/08/22 05:43:06;;;;;;;5.10;4.13;;;16.60;99.90;;;-144.05;87.00;56925.28;5057211;28;20051;-87
2023/08/22 05:45:32;;;;;;;7.97;5.05;;;18.30;99.90;;;-144.05;87.11;56923.19;5057468;28;20127;-88
2023/08/22 05:47:59;;;;;;;7.18;5.10;;;;;;;-144.05;87.10;56918.94;5060178;28;20033;-83
2023/08/22 05:50:24;;;;;;;12.27;5.70;;;18.50;99.90;;;-144.05;87.14;56935.91;5057055;28;20029;-83
2023/08/22 05:52:51;;;;;;;8.18;4.80;;;19.10;99.90;;;-144.05;86.67;56942.28;5075953;28;20029;-84
2023/08/22 05:55:17;;;;;;;8.00;4.63;;;19.10;99.90;;;-144.05;85.79;56948.66;5074530;28;20037;-85
2023/08/22 05:57:43;;;;;;;9.57;4.47;;;18.80;99.90;;;-144.05;84.67;56946.53;5078747;28;20072;-78
2023/08/22 06:00:10;;;;;;;6.57;4.28;;;18.70;99.90;;;-144.05;83.44;56925.28;5067565;28;20532;-85
2023/08/22 06:02:36;;;;;;;8.85;5.13;;;19.70;99.90;;;-144.05;81.93;56925.28;5056567;28;20033;-90
2023/08/22 06:05:02;;;;;;;8.13;4.38;;;16.50;99.90;;;-144.05;80.24;56933.78;5041446;28;20028;-88
2023/08/22 06:07:28;;;;;;;6.88;4.45;;;20.00;99.90;;;-144.05;79.05;56938.03;5040970;28;20037;-88
2023/08/22 06:09:54;;;;;;;9.93;4.38;;;18.60;99.90;;;-144.05;77.54;56955.03;5041903;28;20636;-84
2023/08/22 06:12:20;;;;;;;7.20;3.92;;;;;;;-144.05;75.53;56963.53;5057467;28;20040;-87
2023/08/22 06:14:46;;;;;;;8.27;4.38;;;21.00;99.90;;;-144.05;74.22;56946.53;5059408;28;20033;-87
2023/08/22 06:17:12;;;;;;;7.70;3.80;;;21.10;99.90;;;-144.05;73.19;56959.28;5041593;28;20025;-91
2023/08/22 06:19:38;;;;;;;5.05;3.20;;;;;;;-144.05;71.85;56984.78;5041610;28;20115;-86
2023/08/22 06:22:04;;;;;;;6.82;3.55;;;20.90;99.90;;;-144.05;70.78;56969.91;5041457;28;20462;-89
2023/08/22 06:24:30;;;;;;;10.30;3.30;;;21.50;99.90;;;-144.05;70.94;56969.91;5057070;28;20120;-85
2023/08/22 06:26:55;;;;;;;7.25;3.50;;;21.50;99.90;;;-144.05;70.67;56976.28;5058643;28;20025;-87
2023/08/22 06:29:21;;;;;;;6.53;2.95;;;21.60;99.90;;;-144.05;69.82;56989.00;5041147;28;20049;-87
2023/08/22 06:31:47;;;;;;;8.32;3.38;;;19.80;99.90;;;-144.05;68.72;56989.00;5059428;28;20100;-87
2023/08/22 06:34:13;;;;;;;8.32;3.60;;;21.70;99.90;;;-144.05;67.60;56982.66;5058980;28;20132;-87
2023/08/22 06:36:39;;;;;;;5.85;3.55;;;21.80;99.90;;;-144.05;67.66;56984.78;5059068;28;20025;-86
2023/08/22 06:39:06;;;;;;;8.13;3.78;;;;;;;-144.05;67.29;56969.91;5057752;28;20096;-89
2023/08/22 06:41:32;;;;;;;6.82;3.50;;;22.70;99.90;;;-144.05;66.71;56974.16;5058450;28;20028;-90
2023/08/22 06:44:00;;;;;;;8.60;3.45;;;22.40;99.90;;;-144.05;66.10;56978.41;5055591;28;20511;-86
2023/08/22 06:46:27;;;;;;;7.78;3.33;;;21.80;99.90;;;-144.05;65.44;57012.38;5057211;28;20032;-86
2023/08/22 06:48:53;;;;;;;7.60;3.90;;;;;;;-144.05;64.74;57003.88;5057187;28;20021;-89
2023/08/22 06:51:19;;;;;;;9.05;3.80;;;;;;;-144.05;64.25;56982.66;5057722;28;20061;-87
2023/08/22 06:53:47;;;;;;;10.65;4.43;;;;;;;-144.05;63.42;57003.88;5056391;28;20605;-88
2023/08/22 06:56:13;;;;;;;12.32;3.58;;;23.80;99.90;;;-144.05;63.01;57016.63;5058030;28;20025;-88
2023/08/22 06:58:38;;;;;;;8.85;4.00;;;24.20;99.90;;;-144.05;62.75;57016.63;5058263;28;20053;-88
2023/08/22 07:01:06;;;;;;;10.00;4.72;;;23.90;99.90;;;-144.05;62.50;57020.88;5056172;28;20388;-86
2023/08/22 07:03:32;;;;;;;13.48;4.75;;;;;;;-144.05;61.85;57042.13;5057548;28;20029;-85
2023/08/22 07:05:58;;;;;;;12.93;4.70;;;21.60;99.90;;;-144.05;61.25;57044.25;5039702;28;20033;-86
2023/08/22 07:08:24;;;;;;;9.45;4.07;;;;;;;-144.05;60.91;57059.09;5041217;28;20488;-84
2023/08/22 07:10:50;;;;;;;9.30;4.15;;;;;;;-144.05;59.69;57040.00;5039252;28;20024;-87
2023/08/22 07:13:16;;;;;;;16.70;5.40;;;23.70;99.90;;;-144.05;59.24;57044.25;5057117;28;20024;-84
2023/08/22 07:15:43;;;;;;;9.57;4.13;;;21.90;99.90;;;-144.05;59.05;57054.88;5071807;28;20017;-85
2023/08/22 07:18:10;;;;;;;10.82;4.07;;;;;;;-144.05;58.78;57065.47;5057015;28;20029;-89
2023/08/22 07:20:36;;;;;;;7.28;4.20;;;23.90;99.90;;;-144.05;58.17;57065.47;5067109;28;20052;-89
2023/08/22 07:23:01;;;;;;;7.38;3.92;;;23.90;99.90;;;-144.05;58.36;57035.75;5066781;22;20045;-85
2023/08/22 07:25:27;;;;;;;8.05;3.97;;;22.00;99.90;;;-144.05;58.95;57052.75;5036434;28;20038;-85
2023/08/22 07:27:54;;;;;;;6.70;3.50;;;;;;;-144.05;59.41;57014.50;5053760;28;20029;-86
2023/08/22 07:30:20;;;;;;;8.38;3.47;;;21.90;99.90;;;-144.05;59.49;57048.50;5032568;28;20028;-89
2023/08/22 07:32:46;;;;;;;8.77;4.43;;;23.70;99.90;;;-144.05;59.46;57048.50;5059652;28;20036;-86
2023/08/22 07:35:12;;;;;;;12.35;4.07;;;23.70;99.90;;;-144.05;59.69;57023.00;5057240;28;20067;-86
2023/08/22 07:37:38;;;;;;;9.88;4.82;;;23.50;99.90;;;-144.05;59.87;57031.50;5060679;23;20057;-82
2023/08/22 07:40:05;;;;;;;10.60;4.50;;;23.40;99.90;;;-144.05;59.64;57065.47;5016995;28;20371;-79
2023/08/22 07:42:31;;;;;;;8.65;4.18;;;25.10;99.90;;;-144.05;59.85;57048.50;5016699;28;20030;-81
2023/08/22 07:44:56;;;;;;;7.22;3.92;;;25.30;99.90;;;-144.05;59.85;57025.13;5016919;28;20033;-81
2023/08/22 07:47:23;;;;;;;9.40;3.92;;;;;;;-144.05;58.60;57076.09;5025937;28;20079;-81
2023/08/22 07:49:49;;;;;;;11.70;4.60;;;;;;;-144.05;57.45;57076.09;5037468;28;20492;-81
2023/08/22 07:52:15;;;;;;;11.05;4.40;;;25.80;99.90;;;-144.05;56.20;57097.34;5035486;28;20056;-81
2023/08/22 07:54:40;;;;;;;9.80;4.70;;;25.70;99.90;;;-144.05;55.28;57099.47;5051958;28;20511;-83
2023/08/22 07:57:06;;;;;;;11.43;5.05;;;25.00;99.90;;;-144.05;52.95;57124.97;5036883;28;20080;-81
2023/08/22 07:59:32;;;;;;;8.43;4.07;;;25.30;99.90;;;-144.05;53.49;57120.72;5037210;28;20029;-83
2023/08/22 08:01:58;;;;;;;8.18;4.07;;;23.60;99.90;;;-144.05;53.18;57122.84;5035175;28;20033;-80
2023/08/22 08:04:24;;;;;;;7.25;3.47;;;25.70;99.90;;;-144.05;52.54;57141.94;5052593;28;20057;-81
2023/08/22 08:06:49;;;;;;;11.07;3.50;;;26.10;99.90;;;-144.05;52.15;57135.56;5035673;28;20137;-80
2023/08/22 08:09:16;;;;;;;9.35;3.30;;;;;;;-144.05;50.84;57163.19;5053013;28;20551;-82
2023/08/22 08:11:42;;;;;;;6.10;2.80;;;28.10;99.90;;;-144.05;49.57;57144.06;5037340;28;20030;-82
2023/08/22 08:14:08;;;;;;;7.20;3.72;;;24.70;99.90;;;-144.05;49.45;57139.81;5037500;28;20120;-81
2023/08/22 08:16:34;;;;;;;9.75;3.85;;;28.10;99.90;;;-144.05;46.06;57163.19;5037246;28;20041;-82
2023/08/22 08:19:00;;;;;;;8.35;2.92;;;;;;;-144.05;44.59;57192.94;5037104;28;20032;-80
2023/08/22 08:21:26;;;;;;;5.57;2.47;;;28.60;99.90;;;-144.05;45.07;57182.31;5038705;28;20403;-80
2023/08/22 08:23:52;;;;;;;5.05;2.13;;;27.20;99.90;;;-144.05;43.25;57201.44;5053530;28;20124;-83
2023/08/22 08:26:18;;;;;;;7.55;3.20;;;28.70;99.90;;;-144.05;41.55;57186.56;5038089;28;20041;-82
2023/08/22 08:28:44;;;;;;;6.55;2.55;;;28.70;99.90;;;-144.05;41.01;57188.69;5036131;28;20560;-82
2023/08/22 08:31:10;;;;;;;7.65;2.95;;;26.90;99.90;;;-144.05;42.00;57169.56;5043195;28;20052;-82
2023/08/22 08:33:36;;;;;;;8.32;2.67;;;26.80;99.90;;;-144.05;41.79;57195.06;5052898;28;20025;-81
2023/08/22 08:36:04;;;;;;;4.43;2.22;;;28.30;99.90;;;-144.05;41.45;57188.69;5059968;28;20036;-84
2023/08/22 08:38:30;;;;;;;5.68;3.22;;;28.70;99.90;;;-144.05;42.32;57173.81;5058545;28;20037;-83
2023/08/22 08:41:02;;;;;;;5.80;2.70;;;26.80;99.90;;;-144.05;42.52;57188.69;5041370;28;20033;-82
2023/08/22 08:43:32;;;;;;;11.52;4.22;;;27.70;99.90;;;-144.05;42.27;57192.94;5041909;28;20033;-83
2023/08/22 08:45:59;;;;;;;7.53;3.53;;;27.20;99.90;;;-144.05;42.15;57212.03;5042015;28;20451;-84
2023/08/22 08:48:25;;;;;;;8.40;3.80;;;27.90;99.90;;;-144.05;41.55;57218.41;5052093;28;20116;-83
2023/08/22 08:50:53;;;;;;;7.95;3.47;;;29.40;99.90;;;-144.05;42.46;57212.03;5047728;28;20037;-80
2023/08/22 08:53:19;;;;;;;10.73;4.45;;;28.80;99.90;;;-144.05;42.19;57201.44;5050163;28;20033;-81
2023/08/22 08:55:46;;;;;;;8.32;3.28;;;;;;;-144.05;42.37;57180.19;5065645;28;20058;-82
2023/08/22 08:58:13;;;;;;;6.95;3.50;;;28.30;99.90;;;-144.05;43.44;57158.94;5044851;28;20022;-83
2023/08/22 09:00:40;;;;;;;10.82;3.20;;;29.00;99.90;;;-144.05;43.30;57180.19;5041862;28;20104;-82
2023/08/22 09:03:06;;;;;;;7.10;3.08;;;28.50;99.90;;;-144.05;43.04;57216.28;5043238;28;20477;-81
2023/08/22 09:05:32;;;;;;;5.90;3.08;;;25.30;99.90;;;-144.05;42.66;57201.44;5044005;28;20032;-81
2023/08/22 09:08:19;;;;;;;6.35;3.13;;;25.00;99.90;;;-144.05;43.13;57154.69;5059252;28;20124;-79
2023/08/22 09:10:52;;;;;;;9.45;3.40;;;26.90;99.90;;;-144.05;42.82;57173.81;5042255;28;20623;-82
2023/08/22 09:13:29;;;;;;;7.60;3.20;;;24.80;99.90;;;-144.05;42.75;57178.06;5041235;28;20373;-82
2023/08/22 09:16:01;;;;;;;13.07;3.42;;;24.90;99.90;;;-144.05;42.23;57161.06;5042482;28;20554;-82
2023/08/22 09:18:28;;;;;;;6.30;2.70;;;25.20;99.90;;;-144.05;42.50;57182.31;5058094;28;20061;-80
2023/08/22 09:21:04;;;;;;;7.68;2.92;;;28.80;99.90;;;-144.05;41.52;57150.44;5040707;28;20068;-80
2023/08/22 09:23:31;;;;;;;6.00;2.50;;;28.20;99.90;;;-144.05;42.37;57180.19;5043208;28;20079;-82
2023/08/22 09:25:59;;;;;;;5.53;2.75;;;28.00;99.90;;;-144.05;40.71;57173.81;5042347;28;20091;-82
2023/08/22 09:28:25;;;;;;;5.85;2.08;;;25.10;99.90;;;-144.05;41.38;57186.56;5042988;28;20033;-83
2023/08/22 09:30:54;;;;;;;11.48;3.60;;;;;;;-144.05;39.55;57197.19;5043084;28;20026;-80
2023/08/22 09:33:20;;;;;;;9.38;3.90;;;28.40;99.90;;;-144.05;40.63;57180.19;5041725;28;20029;-84
2023/08/22 09:35:48;;;;;;;5.85;2.55;;;;;;;-144.05;39.98;57180.19;5041669;28;20029;-81
2023/08/22 09:38:14;;;;;;;7.82;2.97;;;25.30;99.90;;;-144.05;39.31;57182.31;5042435;28;20056;-83
2023/08/22 09:40:55;;;;;;;6.72;2.10;;;29.50;99.90;;;-144.05;40.15;57180.19;5042280;28;20025;-83
2023/08/22 09:43:22;;;;;;;5.72;2.88;;;27.90;99.90;;;-144.05;38.60;57216.28;5042266;28;20512;-81
2023/08/22 09:45:52;;;;;;;5.65;2.70;;;27.90;99.90;;;-144.05;38.57;57235.41;5042208;28;20226;-83
2023/08/22 09:48:33;;;;;;;7.57;3.33;;;28.10;99.90;;;-144.05;37.86;57239.66;5044311;28;20244;-83
2023/08/22 09:51:07;;;;;;;8.38;2.95;;;30.60;99.90;;;-144.05;38.17;57246.03;5047861;28;20025;-81
2023/08/22 09:53:35;;;;;;;8.40;4.13;;;28.80;99.90;;;-144.05;36.31;57241.78;5046476;28;20507;-81
2023/08/22 09:56:01;;;;;;;11.15;3.95;;;30.80;99.90;;;-144.05;36.09;57256.66;5045176;28;20029;-82
2023/08/22 09:58:29;;;;;;;9.45;3.97;;;30.30;99.90;;;-144.05;35.92;57269.41;5045426;28;20037;-85
2023/08/22 10:00:57;;;;;;;7.45;3.75;;;30.10;99.90;;;-144.05;36.71;57243.91;5042243;28;20021;-79
2023/08/22 10:03:25;;;;;;;8.52;3.95;;;28.50;99.90;;;-144.05;37.87;57246.03;5039904;28;20694;-83
2023/08/22 10:05:52;;;;;;;8.55;3.65;;;28.20;99.90;;;-144.05;37.58;57218.41;5054774;28;20053;-81
2023/08/22 10:08:19;;;;;;;7.57;3.30;;;;;;;-144.05;37.04;57218.41;5037527;28;20102;-82
2023/08/22 10:10:47;;;;;;;4.65;2.90;;;;;;;-144.05;36.44;57226.91;5039810;28;20505;-81
2023/08/22 10:13:16;;;;;;;9.02;2.35;;;27.90;99.90;;;-144.05;36.93;57248.16;5038164;28;20036;-83
2023/08/22 10:15:44;;;;;;;6.88;3.50;;;29.00;99.90;;;-144.05;37.31;57190.81;5035800;28;20497;-82
2023/08/22 10:18:13;;;;;;;10.50;3.42;;;28.10;99.90;;;-144.05;37.78;57258.78;5039715;28;20037;-83
2023/08/22 10:20:40;;;;;;;9.10;3.38;;;28.60;99.90;;;-144.05;35.02;57265.16;5038683;28;20519;-82